createdAt,value
2023-02-14T00:01:53.058Z,24.00
2023-02-14T00:23:38.932Z,22.90
2023-02-14T00:45:24.730Z,21.20
2023-02-14T01:07:11.471Z,22.70
2023-02-14T01:28:57.974Z,26.60
2023-02-14T01:50:47.141Z,20.90
2023-02-14T02:12:35.582Z,21.60
2023-02-14T02:35:09.246Z,20.80
2023-02-14T02:56:59.830Z,20.30
2023-02-14T03:19:02.120Z,18.10
2023-02-14T03:40:54.709Z,21.50
2023-02-14T04:02:46.874Z,21.40
2023-02-14T04:24:32.867Z,19.30
2023-02-14T04:46:18.650Z,19.10
2023-02-14T05:08:04.399Z,20.00
2023-02-14T05:29:50.596Z,23.60
2023-02-14T05:51:39.209Z,25.40
2023-02-14T06:13:25.477Z,25.30
2023-02-14T06:35:13.773Z,25.20
2023-02-14T06:56:59.578Z,23.50
2023-02-14T07:18:45.384Z,24.30
2023-02-14T07:40:31.653Z,26.50
2023-02-14T08:02:17.499Z,22.40
2023-02-14T08:24:05.075Z,23.90
2023-02-14T08:45:53.317Z,25.60
2023-02-14T09:07:40.063Z,24.80
2023-02-14T09:29:31.648Z,20.60
2023-02-14T09:51:21.114Z,19.40
2023-02-14T10:13:15.978Z,19.20
2023-02-14T10:35:17.326Z,16.10
2023-02-14T10:57:08.189Z,15.30
2023-02-14T11:19:11.693Z,18.40
2023-02-14T11:41:00.383Z,17.50
2023-02-14T12:02:49.024Z,16.80
2023-02-14T12:24:39.160Z,13.00
2023-02-14T12:46:45.981Z,10.40
2023-02-14T13:08:45.602Z,17.50
2023-02-14T13:30:38.631Z,14.40
2023-02-14T13:52:42.535Z,12.40
2023-02-14T14:14:39.860Z,16.60
2023-02-14T14:36:32.955Z,16.20
2023-02-14T14:58:35.649Z,22.80
2023-02-14T15:20:24.008Z,16.80
2023-02-14T15:42:25.962Z,20.30
2023-02-14T16:04:14.417Z,19.20
2023-02-14T16:26:01.159Z,17.00
2023-02-14T16:47:49.318Z,18.20
2023-02-14T17:09:40.090Z,21.60
2023-02-14T17:31:26.290Z,20.70
2023-02-14T17:53:18.078Z,23.00
2023-02-14T18:15:06.088Z,16.00
2023-02-14T18:36:51.982Z,18.60
2023-02-14T18:58:42.241Z,17.60
2023-02-14T19:20:28.328Z,19.80
2023-02-14T19:42:14.160Z,26.40
2023-02-14T20:04:01.145Z,27.00
2023-02-14T20:25:47.460Z,31.80
2023-02-14T20:47:33.481Z,29.00
2023-02-14T21:09:20.948Z,36.50
2023-02-14T21:31:09.821Z,38.90
2023-02-14T21:53:01.781Z,35.50
2023-02-14T22:14:48.556Z,44.20
2023-02-14T22:36:36.819Z,36.30
2023-02-14T22:58:22.923Z,35.60
2023-02-14T23:20:29.719Z,33.50
2023-02-14T23:42:17.329Z,35.20
